Station History

Weather Underground - logo

Station Historical Data
Daily Summary for October 6, 2017 Units:  English    Metric   Both
« Previous Day
Next Day »
Daily Weekly Monthly Yearly Custom
  High: Low: Average:
Temperature: 83.7 °F 47.3 °F 67.9 °F
Dew Point: 52.5 °F 40.2 °F 46.6 °F
Humidity: 88 % 22 % 52 %
Wind Speed: 3.5 mph 0.0 mph 0.8 mph
Wind Gust: 3.5 mph - -
Wind:- - WNW
Pressure: 30.06 in 29.92 in -
Precipitation: 0.00 in    
Historical Graphs
 
 
Tabular Data for October 6, 2017
Time Temperature Dew Point Pressure Wind Wind Speed Wind Gust Humidity Rainfall Rate (Hourly)
00:01 54.9 °F 48.2 °F 29.97 in Calm     78 % 0.00 in
00:06 54.8 °F 47.7 °F 29.97 in Calm     77 % 0.00 in
00:11 55.1 °F 48.0 °F 29.97 in Calm     77 % 0.00 in
00:16 55.5 °F 47.3 °F 29.97 in Calm     74 % 0.00 in
00:21 55.7 °F 46.8 °F 29.97 in Calm     72 % 0.00 in
00:26 55.8 °F 46.5 °F 29.97 in Calm     71 % 0.00 in
00:31 55.9 °F 46.3 °F 29.97 in Calm     70 % 0.00 in
00:36 55.9 °F 47.0 °F 29.97 in Calm     72 % 0.00 in
00:41 56.0 °F 46.4 °F 29.97 in Calm     70 % 0.00 in
00:46 56.0 °F 46.0 °F 29.97 in Calm     69 % 0.00 in
00:51 55.9 °F 47.0 °F 29.97 in Calm     72 % 0.00 in
00:56 55.1 °F 47.0 °F 29.97 in Calm     74 % 0.00 in
01:01 54.3 °F 46.5 °F 29.98 in Calm     75 % 0.00 in
01:11 52.6 °F 45.9 °F 29.98 in Calm     78 % 0.00 in
01:16 52.3 °F 46.0 °F 29.98 in Calm     79 % 0.00 in
05:54 48.9 °F 44.3 °F 30.01 in Calm     84 % 0.00 in
06:03 48.7 °F 44.1 °F 30.01 in Calm     84 % 0.00 in
06:05 48.8 °F 43.9 °F 30.01 in Calm     83 % 0.00 in
06:10 49.4 °F 45.1 °F 30.01 in Calm     85 % 0.00 in
06:15 49.8 °F 44.5 °F 30.01 in Calm     82 % 0.00 in
06:20 49.7 °F 44.1 °F 30.01 in Calm     81 % 0.00 in
06:25 49.6 °F 44.3 °F 30.01 in Calm     82 % 0.00 in
06:30 49.6 °F 45.0 °F 30.01 in Calm     84 % 0.00 in
06:36 49.5 °F 44.9 °F 30.01 in Calm     84 % 0.00 in
06:41 49.5 °F 45.2 °F 30.01 in Calm     85 % 0.00 in
06:46 49.3 °F 44.7 °F 30.01 in Calm     84 % 0.00 in
06:51 49.1 °F 44.5 °F 30.01 in Calm     84 % 0.00 in
06:56 48.9 °F 44.3 °F 30.02 in Calm     84 % 0.00 in
07:01 48.2 °F 43.6 °F 30.02 in Calm     84 % 0.00 in
07:06 47.6 °F 43.3 °F 30.02 in Calm     85 % 0.00 in
07:11 47.3 °F 43.3 °F 30.02 in Calm     86 % 0.00 in
07:16 47.3 °F 43.9 °F 30.02 in Calm     88 % 0.00 in
07:21 47.4 °F 44.0 °F 30.02 in Calm     88 % 0.00 in
07:31 47.7 °F 44.3 °F 30.03 in Calm     88 % 0.00 in
07:36 48.3 °F 44.9 °F 30.03 in Calm     88 % 0.00 in
07:41 48.6 °F 45.2 °F 30.03 in Calm     88 % 0.00 in
07:46 49.0 °F 45.3 °F 30.03 in Calm     87 % 0.00 in
07:51 49.4 °F 45.7 °F 30.03 in Calm     87 % 0.00 in
07:56 50.0 °F 46.0 °F 30.04 in Calm     86 % 0.00 in
08:01 50.5 °F 46.2 °F 30.04 in Calm     85 % 0.00 in
08:06 51.3 °F 46.9 °F 30.04 in Calm     85 % 0.00 in
08:11 52.8 °F 47.5 °F 30.04 in Calm     82 % 0.00 in
08:16 54.4 °F 48.4 °F 30.04 in Calm     80 % 0.00 in
08:21 56.0 °F 48.5 °F 30.04 in Calm     76 % 0.00 in
08:26 57.7 °F 48.0 °F 30.05 in Calm     70 % 0.00 in
08:31 58.6 °F 47.3 °F 30.05 in Calm     66 % 0.00 in
08:36 59.5 °F 48.1 °F 30.05 in Calm     66 % 0.00 in
08:41 60.5 °F 49.1 °F 30.05 in Calm     66 % 0.00 in
08:46 61.4 °F 48.7 °F 30.05 in Calm     63 % 0.00 in
08:51 62.3 °F 47.8 °F 30.05 in Calm     59 % 0.00 in
08:56 63.4 °F 47.9 °F 30.06 in Calm     57 % 0.00 in
09:01 64.2 °F 47.7 °F 30.06 in NNW 1.2 mph   55 % 0.00 in
09:07 64.8 °F 47.3 °F 30.06 in Calm     53 % 0.00 in
09:12 65.4 °F 46.8 °F 30.06 in Calm     51 % 0.00 in
09:17 66.2 °F 45.9 °F 30.06 in WNW 2.3 mph 2.3 mph 48 % 0.00 in
09:19 66.4 °F 45.5 °F 30.06 in Calm     47 % 0.00 in
09:24 66.6 °F 45.2 °F 30.06 in NW 1.2 mph   46 % 0.00 in
09:29 66.7 °F 45.3 °F 30.06 in West 1.2 mph 1.2 mph 46 % 0.00 in
09:34 67.0 °F 43.8 °F 30.06 in West 1.2 mph 1.2 mph 43 % 0.00 in
09:39 67.5 °F 45.4 °F 30.06 in WNW 1.2 mph 1.2 mph 45 % 0.00 in
09:44 68.0 °F 45.3 °F 30.06 in Calm     44 % 0.00 in
09:49 68.7 °F 43.4 °F 30.06 in NW 2.3 mph 2.3 mph 40 % 0.00 in
09:54 69.1 °F 43.8 °F 30.06 in Calm     40 % 0.00 in
09:59 69.4 °F 43.4 °F 30.06 in WNW 2.3 mph 2.3 mph 39 % 0.00 in
10:04 70.2 °F 45.4 °F 30.06 in Calm     41 % 0.00 in
10:09 70.4 °F 43.6 °F 30.06 in WNW 1.2 mph   38 % 0.00 in
10:14 70.8 °F 43.2 °F 30.06 in SE 2.3 mph 2.3 mph 37 % 0.00 in
10:19 71.3 °F 44.4 °F 30.06 in South 1.2 mph   38 % 0.00 in
10:24 71.8 °F 43.4 °F 30.06 in SSW 3.5 mph 3.5 mph 36 % 0.00 in
10:29 72.3 °F 44.6 °F 30.06 in SE 2.3 mph 2.3 mph 37 % 0.00 in
10:34 72.5 °F 44.0 °F 30.06 in WNW 1.2 mph 1.2 mph 36 % 0.00 in
10:39 72.9 °F 43.6 °F 30.06 in SSE 1.2 mph 1.2 mph 35 % 0.00 in
10:44 73.3 °F 44.0 °F 30.05 in Calm     35 % 0.00 in
10:49 74.1 °F 45.4 °F 30.05 in NNW 1.2 mph 1.2 mph 36 % 0.00 in
10:54 74.2 °F 44.8 °F 30.05 in NW 1.2 mph   35 % 0.00 in
10:59 74.1 °F 45.4 °F 30.05 in SE 1.2 mph 1.2 mph 36 % 0.00 in
11:04 74.4 °F 45.0 °F 30.05 in West 2.0 mph 2.0 mph 35 % 0.00 in
11:09 74.9 °F 46.9 °F 30.05 in Calm   0.1 mph 37 % 0.00 in
11:14 75.2 °F 45.7 °F 30.05 in SSE 2.3 mph 2.3 mph 35 % 0.00 in
11:19 75.4 °F 43.5 °F 30.05 in Calm   0.1 mph 32 % 0.00 in
11:24 75.4 °F 42.7 °F 30.04 in WNW 1.2 mph 1.2 mph 31 % 0.00 in
11:29 75.6 °F 43.7 °F 30.04 in WNW 2.3 mph 2.3 mph 32 % 0.00 in
11:34 76.1 °F 44.9 °F 30.04 in NNW 1.2 mph 1.2 mph 33 % 0.00 in
11:40 76.4 °F 45.2 °F 30.04 in NW 2.3 mph 2.3 mph 33 % 0.00 in
11:44 76.9 °F 45.6 °F 30.04 in West 1.2 mph 1.2 mph 33 % 0.00 in
11:50 77.5 °F 46.1 °F 30.04 in WNW 2.0 mph 2.0 mph 33 % 0.00 in
11:55 77.3 °F 45.9 °F 30.04 in Calm     33 % 0.00 in
12:00 77.7 °F 45.5 °F 30.03 in NW 2.3 mph 2.3 mph 32 % 0.00 in
12:05 77.8 °F 46.4 °F 30.03 in WSW 1.2 mph 1.2 mph 33 % 0.00 in
12:10 78.0 °F 44.9 °F 30.03 in ESE 1.2 mph 1.2 mph 31 % 0.00 in
12:15 78.6 °F 49.4 °F 30.03 in ESE 1.2 mph 1.2 mph 36 % 0.00 in
12:20 79.0 °F 45.8 °F 30.03 in WNW 2.3 mph 2.3 mph 31 % 0.00 in
12:25 78.7 °F 43.8 °F 30.02 in WNW 2.3 mph 2.3 mph 29 % 0.00 in
12:30 78.6 °F 46.3 °F 30.02 in WNW 1.2 mph 1.2 mph 32 % 0.00 in
12:36 79.0 °F 44.0 °F 30.02 in NW 2.3 mph   29 % 0.00 in
12:41 79.7 °F 45.5 °F 30.02 in North 1.2 mph 1.2 mph 30 % 0.00 in
12:51 80.1 °F 45.9 °F 30.02 in SE 1.2 mph 1.2 mph 30 % 0.00 in
12:56 80.8 °F 45.6 °F 30.01 in NW 1.2 mph 1.2 mph 29 % 0.00 in
12:57 80.8 °F 47.3 °F 30.01 in NW 1.2 mph 1.2 mph 31 % 0.00 in
13:07 80.6 °F 47.2 °F 30.01 in Calm     31 % 0.00 in
13:12 81.3 °F 45.1 °F 30.00 in WNW 2.0 mph 2.0 mph 28 % 0.00 in
13:17 81.3 °F 44.1 °F 30.00 in NW 3.5 mph 3.5 mph 27 % 0.00 in
13:22 81.0 °F 42.9 °F 30.00 in WNW 1.2 mph 1.2 mph 26 % 0.00 in
13:27 81.3 °F 44.1 °F 29.99 in WSW 3.5 mph 3.5 mph 27 % 0.00 in
13:37 81.6 °F 44.4 °F 29.99 in NW 1.2 mph 1.2 mph 27 % 0.00 in
13:42 82.0 °F 44.7 °F 29.99 in NW 2.3 mph 2.3 mph 27 % 0.00 in
13:47 82.3 °F 45.0 °F 29.99 in West 2.3 mph 2.3 mph 27 % 0.00 in
13:57 82.5 °F 42.1 °F 29.98 in NW 2.3 mph 2.3 mph 24 % 0.00 in
14:02 82.3 °F 44.0 °F 29.98 in NW 1.2 mph 1.2 mph 26 % 0.00 in
14:07 82.6 °F 45.2 °F 29.97 in SW 2.3 mph 2.3 mph 27 % 0.00 in
14:12 82.6 °F 43.2 °F 29.97 in NNW 3.0 mph 3.0 mph 25 % 0.00 in
14:17 82.9 °F 44.5 °F 29.97 in WNW 2.3 mph 2.3 mph 26 % 0.00 in
14:22 83.0 °F 43.5 °F 29.97 in WNW 1.0 mph 1.0 mph 25 % 0.00 in
14:27 83.1 °F 43.6 °F 29.97 in West 3.5 mph 3.5 mph 25 % 0.00 in
14:32 83.1 °F 42.6 °F 29.97 in NW 2.3 mph 2.3 mph 24 % 0.00 in
14:37 83.0 °F 42.5 °F 29.96 in NNW 2.3 mph 2.3 mph 24 % 0.00 in
14:42 83.0 °F 40.2 °F 29.96 in NW 3.5 mph 3.5 mph 22 % 0.00 in
14:47 83.3 °F 43.8 °F 29.96 in WNW 3.0 mph 3.0 mph 25 % 0.00 in
14:52 83.3 °F 42.7 °F 29.96 in NNW 2.3 mph 2.3 mph 24 % 0.00 in
14:57 83.3 °F 43.8 °F 29.96 in Calm     25 % 0.00 in
15:02 83.7 °F 44.1 °F 29.96 in NW 3.5 mph 3.5 mph 25 % 0.00 in
15:07 83.4 °F 42.8 °F 29.95 in NNW 2.0 mph 2.0 mph 24 % 0.00 in
15:12 83.3 °F 43.8 °F 29.95 in NW 3.5 mph 3.5 mph 25 % 0.00 in
15:17 83.4 °F 41.7 °F 29.95 in WNW 1.2 mph 1.2 mph 23 % 0.00 in
15:22 83.7 °F 43.1 °F 29.95 in NW 1.2 mph 1.2 mph 24 % 0.00 in
15:23 83.7 °F 43.1 °F 29.95 in NW 3.0 mph 3.0 mph 24 % 0.00 in
15:28 83.7 °F 44.1 °F 29.95 in NW 3.5 mph 3.5 mph 25 % 0.00 in
15:33 83.6 °F 43.0 °F 29.95 in NNW 3.0 mph 3.0 mph 24 % 0.00 in
15:38 83.5 °F 44.0 °F 29.95 in NW 2.3 mph 2.3 mph 25 % 0.00 in
15:43 83.7 °F 43.1 °F 29.94 in WNW 2.3 mph 2.3 mph 24 % 0.00 in
15:48 83.7 °F 43.1 °F 29.94 in NW 1.2 mph 1.2 mph 24 % 0.00 in
15:53 83.7 °F 42.0 °F 29.94 in NW 2.3 mph 2.3 mph 23 % 0.00 in
15:58 83.7 °F 43.1 °F 29.94 in NW 2.3 mph 2.3 mph 24 % 0.00 in
16:03 83.7 °F 44.1 °F 29.94 in WSW 1.2 mph 1.2 mph 25 % 0.00 in
16:08 83.7 °F 44.1 °F 29.94 in WNW 1.2 mph 1.2 mph 25 % 0.00 in
16:13 83.5 °F 42.9 °F 29.94 in WNW 3.0 mph 3.0 mph 24 % 0.00 in
16:18 83.4 °F 42.8 °F 29.93 in Calm     24 % 0.00 in
16:23 83.4 °F 43.9 °F 29.93 in WNW 2.3 mph 2.3 mph 25 % 0.00 in
16:28 83.3 °F 42.7 °F 29.93 in WNW 3.5 mph 3.5 mph 24 % 0.00 in
16:33 83.1 °F 43.6 °F 29.93 in NW 2.3 mph 2.3 mph 25 % 0.00 in
16:38 83.0 °F 46.5 °F 29.93 in NW 3.5 mph 3.5 mph 28 % 0.00 in
16:43 82.9 °F 43.5 °F 29.93 in NW 2.3 mph 2.3 mph 25 % 0.00 in
16:48 82.7 °F 44.3 °F 29.93 in NNW 2.3 mph 2.3 mph 26 % 0.00 in
16:53 82.6 °F 45.2 °F 29.93 in WNW 1.2 mph 1.2 mph 27 % 0.00 in
16:58 82.5 °F 44.1 °F 29.93 in NW 1.2 mph 1.2 mph 26 % 0.00 in
17:03 82.3 °F 45.0 °F 29.93 in WNW 1.2 mph 1.2 mph 27 % 0.00 in
17:08 82.1 °F 45.8 °F 29.92 in NW 2.3 mph 2.3 mph 28 % 0.00 in
17:13 82.0 °F 44.7 °F 29.92 in NW 2.3 mph 2.3 mph 27 % 0.00 in
17:18 81.7 °F 44.5 °F 29.92 in WNW 1.2 mph 1.2 mph 27 % 0.00 in
17:23 81.6 °F 44.4 °F 29.92 in NW 1.2 mph 1.2 mph 27 % 0.00 in
17:28 81.3 °F 46.9 °F 29.92 in WSW 1.2 mph 1.2 mph 30 % 0.00 in
17:33 81.0 °F 46.6 °F 29.92 in WNW 1.2 mph   30 % 0.00 in
17:38 80.8 °F 47.3 °F 29.92 in Calm     31 % 0.00 in
17:43 80.4 °F 47.0 °F 29.92 in West 1.2 mph   31 % 0.00 in
17:53 79.4 °F 47.8 °F 29.92 in Calm     33 % 0.00 in
17:54 79.3 °F 47.7 °F 29.92 in Calm     33 % 0.00 in
17:59 78.8 °F 48.1 °F 29.92 in Calm     34 % 0.00 in
18:04 78.4 °F 47.7 °F 29.92 in Calm     34 % 0.00 in
18:09 77.8 °F 47.9 °F 29.92 in Calm     35 % 0.00 in
18:14 77.2 °F 48.9 °F 29.92 in Calm     37 % 0.00 in
18:19 76.4 °F 48.2 °F 29.92 in Calm     37 % 0.00 in
18:24 75.6 °F 48.9 °F 29.92 in Calm     39 % 0.00 in
18:29 74.6 °F 49.3 °F 29.92 in Calm     41 % 0.00 in
18:34 73.7 °F 49.2 °F 29.92 in Calm     42 % 0.00 in
18:39 72.9 °F 49.1 °F 29.92 in Calm     43 % 0.00 in
18:44 72.2 °F 50.3 °F 29.92 in Calm     46 % 0.00 in
18:49 71.3 °F 49.4 °F 29.92 in Calm     46 % 0.00 in
18:54 70.6 °F 50.0 °F 29.92 in Calm     48 % 0.00 in
18:59 69.9 °F 48.7 °F 29.92 in Calm     47 % 0.00 in
19:04 69.4 °F 50.5 °F 29.92 in Calm     51 % 0.00 in
19:09 68.9 °F 50.0 °F 29.92 in Calm     51 % 0.00 in
19:14 68.4 °F 50.6 °F 29.92 in Calm     53 % 0.00 in
19:19 67.8 °F 52.5 °F 29.92 in Calm     58 % 0.00 in
19:24 67.3 °F 52.0 °F 29.92 in Calm     58 % 0.00 in
19:29 66.7 °F 52.4 °F 29.92 in Calm     60 % 0.00 in
19:34 66.2 °F 52.3 °F 29.92 in Calm     61 % 0.00 in
19:39 65.6 °F 52.2 °F 29.92 in Calm     62 % 0.00 in
19:44 65.1 °F 50.9 °F 29.92 in Calm     60 % 0.00 in
19:49 64.8 °F 51.5 °F 29.92 in Calm     62 % 0.00 in
19:54 64.6 °F 50.8 °F 29.92 in Calm     61 % 0.00 in
19:59 64.5 °F 50.7 °F 29.92 in Calm     61 % 0.00 in
20:04 64.2 °F 51.3 °F 29.92 in Calm     63 % 0.00 in
20:09 63.8 °F 50.5 °F 29.92 in Calm     62 % 0.00 in
20:14 63.7 °F 51.7 °F 29.93 in Calm     65 % 0.00 in
20:19 63.4 °F 51.8 °F 29.93 in Calm     66 % 0.00 in
20:20 63.4 °F 51.8 °F 29.93 in Calm     66 % 0.00 in
20:25 63.1 °F 51.1 °F 29.93 in Calm     65 % 0.00 in
20:30 62.7 °F 50.8 °F 29.93 in Calm     65 % 0.00 in
20:35 62.4 °F 50.5 °F 29.93 in Calm     65 % 0.00 in
20:45 62.5 °F 50.6 °F 29.93 in Calm     65 % 0.00 in
20:50 62.5 °F 50.6 °F 29.93 in Calm     65 % 0.00 in
20:55 62.3 °F 50.8 °F 29.93 in Calm     66 % 0.00 in
21:00 61.9 °F 51.2 °F 29.93 in Calm     68 % 0.00 in
21:05 61.4 °F 50.7 °F 29.93 in Calm     68 % 0.00 in
21:10 60.9 °F 50.7 °F 29.93 in Calm     69 % 0.00 in
21:15 60.5 °F 50.3 °F 29.94 in Calm     69 % 0.00 in
21:20 60.1 °F 49.9 °F 29.94 in Calm     69 % 0.00 in
21:25 60.0 °F 49.8 °F 29.94 in Calm     69 % 0.00 in
21:30 59.8 °F 50.0 °F 29.94 in Calm     70 % 0.00 in
21:40 59.3 °F 49.9 °F 29.94 in Calm     71 % 0.00 in
21:46 59.1 °F 50.1 °F 29.94 in Calm     72 % 0.00 in
21:51 58.8 °F 50.2 °F 29.94 in Calm     73 % 0.00 in
22:01 58.5 °F 50.2 °F 29.94 in Calm     74 % 0.00 in
22:06 58.4 °F 49.8 °F 29.94 in Calm     73 % 0.00 in
22:11 58.2 °F 50.0 °F 29.94 in Calm     74 % 0.00 in
22:16 58.0 °F 49.4 °F 29.95 in Calm     73 % 0.00 in
22:21 58.5 °F 50.2 °F 29.95 in Calm     74 % 0.00 in
22:26 58.6 °F 50.3 °F 29.95 in Calm     74 % 0.00 in
22:27 58.5 °F 50.2 °F 29.95 in Calm     74 % 0.00 in
22:32 58.2 °F 50.0 °F 29.95 in Calm     74 % 0.00 in
22:37 57.6 °F 49.7 °F 29.95 in Calm     75 % 0.00 in
22:42 57.2 °F 49.7 °F 29.95 in Calm     76 % 0.00 in
22:47 56.9 °F 49.1 °F 29.95 in Calm     75 % 0.00 in
22:52 56.8 °F 49.3 °F 29.95 in Calm     76 % 0.00 in
22:57 56.8 °F 49.0 °F 29.95 in Calm     75 % 0.00 in
23:02 57.2 °F 48.6 °F 29.95 in Calm     73 % 0.00 in
23:07 57.4 °F 48.4 °F 29.95 in Calm     72 % 0.00 in
23:12 57.2 °F 48.6 °F 29.95 in Calm     73 % 0.00 in
23:17 57.0 °F 48.4 °F 29.95 in Calm     73 % 0.00 in
23:22 56.7 °F 48.5 °F 29.95 in Calm     74 % 0.00 in
23:27 56.4 °F 48.2 °F 29.95 in Calm     74 % 0.00 in
23:32 56.2 °F 48.4 °F 29.95 in Calm     75 % 0.00 in
23:37 56.1 °F 47.9 °F 29.95 in Calm     74 % 0.00 in
23:42 56.0 °F 47.8 °F 29.95 in Calm     74 % 0.00 in
23:47 56.2 °F 48.0 °F 29.95 in Calm     74 % 0.00 in
23:52 56.6 °F 48.4 °F 29.95 in Calm     74 % 0.00 in
23:57 56.5 °F 48.7 °F 29.95 in Calm     75 % 0.00 in
Park Place, Exeter, Tulare County, California, USA
Compliments of Weather Underground - 2.5 mb